Time;durP1;ratioP1;P1;durP2;ratioP2;P2;SDS_P1;SDS_P2;PMS_P1;PMS_P2;Temp;Humidity;BMP_temperature;BMP_pressure;BME280_temperature;BME280_humidity;BME280_pressure;Samples;Min_cycle;Max_cycle;Signal;HPM_P1;HPM_P2
2021/06/30 00:01:43;;;;;;;16.50;10.40;;;;;;;19.44;80.83;101116.73;1822367;79;21075;-60
2021/06/30 00:04:12;;;;;;;16.35;11.53;;;;;;;19.45;80.50;101115.78;1822391;79;21068;-59
2021/06/30 00:06:41;;;;;;;16.80;10.90;;;;;;;19.47;80.66;101117.86;1822385;79;21247;-60
2021/06/30 00:09:10;;;;;;;15.05;12.60;;;;;;;19.48;80.79;101119.09;1822375;79;21050;-60
2021/06/30 00:11:38;;;;;;;19.02;14.07;;;;;;;19.51;80.83;101116.67;1822298;79;21051;-60
2021/06/30 00:14:07;;;;;;;18.77;11.97;;;;;;;19.50;80.67;101122.15;1822359;79;21603;-59
2021/06/30 00:16:37;;;;;;;17.07;10.82;;;;;;;19.48;80.76;101126.26;1822338;79;21164;-60
2021/06/30 00:19:09;;;;;;;19.48;11.00;;;;;;;19.46;80.76;101130.37;1822280;79;21438;-60
2021/06/30 00:21:38;;;;;;;13.93;9.45;;;;;;;19.46;81.00;101122.84;1822333;79;21148;-60
2021/06/30 00:24:07;;;;;;;20.25;10.93;;;;;;;19.45;80.87;101124.64;1822337;79;21115;-59
2021/06/30 00:26:38;;;;;;;15.60;11.40;;;;;;;19.42;80.82;101122.66;1816345;78;21548;-60
2021/06/30 00:29:07;;;;;;;24.98;13.70;;;;;;;19.38;80.73;101132.70;1813182;79;21074;-60
2021/06/30 00:31:37;;;;;;;22.75;13.80;;;;;;;19.34;80.77;101130.38;1813133;79;21149;-60
2021/06/30 00:34:06;;;;;;;21.37;13.48;;;;;;;19.31;80.72;101135.91;1813188;79;21537;-60
2021/06/30 00:36:36;;;;;;;21.05;14.00;;;;;;;19.25;80.84;101132.70;1813219;79;21079;-60
2021/06/30 00:39:06;;;;;;;22.22;14.68;;;;;;;19.22;81.22;101138.27;1813265;79;21075;-59
2021/06/30 00:41:35;;;;;;;27.00;22.30;;;;;;;19.18;81.27;101131.45;1813316;79;21575;-59
2021/06/30 00:44:04;;;;;;;37.80;33.50;;;;;;;19.16;81.61;101133.34;1813145;79;21059;-60
2021/06/30 00:46:35;;;;;;;42.45;35.43;;;;;;;19.13;81.67;101132.23;1813374;79;21126;-60
2021/06/30 00:49:06;;;;;;;48.38;36.35;;;;;;;19.09;81.84;101133.42;1813284;79;21059;-60
2021/06/30 00:51:35;;;;;;;39.95;28.65;;;;;;;19.05;82.15;101127.89;1813292;79;21067;-60
2021/06/30 00:54:04;;;;;;;40.28;24.00;;;;;;;19.05;82.38;101131.44;1813294;79;21485;-60
2021/06/30 00:56:33;;;;;;;31.68;18.80;;;;;;;19.05;82.42;101129.22;1813176;79;21059;-60
2021/06/30 00:59:02;;;;;;;28.20;18.27;;;;;;;19.05;82.72;101126.55;1813291;79;21141;-60
2021/06/30 01:01:31;;;;;;;22.10;14.98;;;;;;;19.04;82.89;101125.70;1813260;79;21498;-60
2021/06/30 01:04:00;;;;;;;23.80;13.13;;;;;;;19.04;82.95;101126.20;1813380;79;21087;-60
2021/06/30 01:06:29;;;;;;;19.55;11.00;;;;;;;19.03;82.81;101125.35;1813276;79;21068;-60
2021/06/30 01:09:03;;;;;;;19.42;12.63;;;;;;;19.01;82.79;101125.91;1813177;79;21036;-60
2021/06/30 01:11:28;;;;;;;20.62;12.43;;;;;;;19.00;83.23;101127.38;1812770;79;21177;-60
2021/06/30 01:13:57;;;;;;;24.65;13.25;;;;;;;18.97;83.03;101136.91;1813394;79;21090;-60
2021/06/30 01:16:26;;;;;;;21.90;12.03;;;;;;;18.94;83.07;101133.11;1813258;79;21650;-60
2021/06/30 01:18:55;;;;;;;19.30;11.90;;;;;;;18.88;83.11;101135.23;1813240;79;21051;-59
2021/06/30 01:21:23;;;;;;;21.33;12.85;;;;;;;18.84;83.07;101139.07;1813149;79;21180;-59
2021/06/30 01:23:52;;;;;;;26.68;13.18;;;;;;;18.80;83.32;101148.21;1801090;80;21203;-60
2021/06/30 01:26:21;;;;;;;21.93;12.35;;;;;;;18.77;83.44;101147.07;1815420;78;21094;-60
2021/06/30 01:28:50;;;;;;;21.87;12.43;;;;;;;18.74;83.31;101149.97;1822477;79;21169;-59
2021/06/30 01:31:18;;;;;;;24.43;12.80;;;;;;;18.71;83.14;101148.83;1822548;79;21071;-60
2021/06/30 01:33:47;;;;;;;22.20;12.47;;;;;;;18.67;83.23;101150.00;1822444;79;21066;-59
2021/06/30 01:36:16;;;;;;;24.80;13.18;;;;;;;18.62;83.43;101158.29;1822396;79;21078;-60
2021/06/30 01:38:45;;;;;;;22.07;12.68;;;;;;;18.59;83.50;101166.52;1822430;79;21177;-60
2021/06/30 01:41:14;;;;;;;21.23;11.93;;;;;;;18.57;83.64;101160.88;1822415;79;21506;-59
2021/06/30 01:43:44;;;;;;;22.62;12.45;;;;;;;18.56;83.52;101164.52;1822583;79;21067;-59
2021/06/30 01:46:12;;;;;;;23.07;13.05;;;;;;;18.54;83.56;101163.77;1822411;79;21034;-59
2021/06/30 01:48:49;;;;;;;20.12;11.68;;;;;;;18.50;83.57;101159.97;1822306;79;21058;-60
2021/06/30 01:51:17;;;;;;;19.40;12.73;;;;;;;18.48;84.01;101161.88;1822551;79;21058;-60
2021/06/30 01:53:46;;;;;;;27.32;13.32;;;;;;;18.47;84.15;101162.83;1822503;79;21059;-59
2021/06/30 01:56:15;;;;;;;25.40;13.70;;;;;;;18.48;84.30;101165.88;1822492;79;21051;-59
2021/06/30 01:58:44;;;;;;;24.50;14.68;;;;;;;18.49;84.47;101162.24;1822519;79;21027;-60
2021/06/30 02:01:13;;;;;;;25.55;13.72;;;;;;;18.52;84.51;101168.72;1822307;79;21035;-60
2021/06/30 02:03:42;;;;;;;28.47;14.03;;;;;;;18.56;84.56;101172.53;1822435;79;21082;-60
2021/06/30 02:06:11;;;;;;;26.62;17.82;;;;;;;18.60;84.23;101168.69;1822432;79;21137;-59
2021/06/30 02:08:39;;;;;;;34.92;20.37;;;;;;;18.64;84.15;101171.53;1822428;79;21030;-60
2021/06/30 02:11:08;;;;;;;40.70;25.50;;;;;;;18.68;84.35;101171.23;1822425;79;21182;-60
2021/06/30 02:13:37;;;;;;;39.27;25.55;;;;;;;18.75;84.47;101171.66;1822336;79;21595;-60
2021/06/30 02:16:06;;;;;;;30.27;18.17;;;;;;;18.84;84.49;101173.75;1822403;79;21087;-60
2021/06/30 02:18:35;;;;;;;27.73;18.55;;;;;;;18.93;84.48;101176.29;1822405;79;21119;-60
2021/06/30 02:21:04;;;;;;;23.27;13.48;;;;;;;19.02;84.39;101177.48;1822444;79;21079;-60
2021/06/30 02:23:32;;;;;;;22.35;15.05;;;;;;;19.08;84.29;101179.73;1822619;79;21042;-60
2021/06/30 02:26:01;;;;;;;29.20;15.13;;;;;;;19.13;84.03;101186.95;1822339;79;21057;-60
2021/06/30 02:28:30;;;;;;;24.43;14.18;;;;;;;19.17;83.89;101183.11;1822501;78;21172;-60
2021/06/30 02:31:00;;;;;;;27.82;17.65;;;;;;;19.25;83.71;101186.09;1822404;79;21157;-61
2021/06/30 02:33:30;;;;;;;22.05;14.00;;;;;;;19.25;83.41;101187.43;1822540;79;21113;-60
2021/06/30 02:35:58;;;;;;;17.45;11.55;;;;;;;19.22;83.24;101184.99;1822435;79;21054;-60
2021/06/30 02:38:27;;;;;;;15.70;10.82;;;;;;;19.18;83.07;101190.63;1822436;79;21062;-59
2021/06/30 02:40:56;;;;;;;19.95;11.03;;;;;;;19.16;82.85;101185.39;1822364;79;21169;-61
2021/06/30 02:43:24;;;;;;;15.85;9.90;;;;;;;19.16;82.71;101183.21;1822391;79;21079;-59
2021/06/30 02:45:53;;;;;;;15.50;9.25;;;;;;;19.16;82.61;101198.73;1822422;79;21055;-60
2021/06/30 02:48:25;;;;;;;15.58;9.35;;;;;;;19.18;82.85;101191.51;1822560;79;21087;-60
2021/06/30 02:50:54;;;;;;;16.05;9.75;;;;;;;19.31;82.83;101190.19;1822442;79;21082;-60
2021/06/30 02:53:22;;;;;;;16.48;9.08;;;;;;;19.52;82.62;101187.84;1822259;79;21595;-60
2021/06/30 02:55:51;;;;;;;15.03;9.28;;;;;;;19.67;82.72;101186.75;1822407;79;21063;-60
2021/06/30 02:58:20;;;;;;;19.80;8.78;;;;;;;19.71;82.50;101190.55;1822476;79;21128;-60
2021/06/30 03:00:49;;;;;;;17.15;10.32;;;;;;;19.67;82.20;101192.09;1822374;79;21075;-59
2021/06/30 03:03:17;;;;;;;26.48;13.98;;;;;;;19.66;82.13;101193.08;1822387;79;21102;-60
2021/06/30 03:05:46;;;;;;;49.80;29.55;;;;;;;19.80;82.30;101196.61;1822244;79;21063;-60
2021/06/30 03:08:15;;;;;;;48.20;32.23;;;;;;;19.88;82.16;101199.59;1822398;79;21087;-61
2021/06/30 03:10:44;;;;;;;35.28;25.57;;;;;;;19.90;81.86;101200.81;1822501;79;21086;-60
2021/06/30 03:13:13;;;;;;;15.23;10.55;;;;;;;19.92;81.60;101200.22;1822408;79;21179;-59
2021/06/30 03:15:41;;;;;;;19.42;11.55;;;;;;;19.95;81.52;101200.86;1822382;79;21055;-60
2021/06/30 03:18:11;;;;;;;16.45;10.98;;;;;;;20.10;81.74;101200.73;1822300;79;21079;-61
2021/06/30 03:20:40;;;;;;;23.00;13.10;;;;;;;20.32;82.04;101195.53;1822395;79;21533;-60
2021/06/30 03:23:09;;;;;;;22.82;14.15;;;;;;;20.46;81.97;101188.34;1822478;79;21039;-60
2021/06/30 03:25:38;;;;;;;23.45;15.32;;;;;;;20.63;81.88;101193.31;1822381;79;21122;-60
2021/06/30 03:28:07;;;;;;;26.80;15.28;;;;;;;20.85;81.85;101190.38;1819082;78;21091;-60
2021/06/30 03:30:36;;;;;;;30.90;15.58;;;;;;;21.09;81.89;101189.84;1813189;79;21482;-61
2021/06/30 03:33:05;;;;;;;18.50;10.45;;;;;;;21.38;81.80;101191.62;1813278;79;21105;-60
2021/06/30 03:35:34;;;;;;;15.85;8.63;;;;;;;21.65;80.80;101198.99;1813408;79;21047;-60
2021/06/30 03:38:03;;;;;;;12.95;8.15;;;;;;;21.89;80.16;101194.39;1813192;79;21078;-60
2021/06/30 03:40:31;;;;;;;13.05;8.08;;;;;;;22.13;79.67;101202.76;1813297;79;21058;-60
2021/06/30 03:43:00;;;;;;;15.45;7.40;;;;;;;22.31;79.00;101206.66;1813142;79;21073;-60
2021/06/30 03:45:29;;;;;;;11.68;6.30;;;;;;;22.54;78.74;101211.50;1813105;79;21051;-60
2021/06/30 03:47:58;;;;;;;8.10;5.62;;;;;;;22.75;78.27;101214.23;1813209;79;21189;-61
2021/06/30 03:50:26;;;;;;;10.23;5.20;;;;;;;22.95;77.58;101209.04;1813364;79;21059;-60
2021/06/30 03:52:55;;;;;;;15.48;6.17;;;;;;;23.07;76.73;101204.02;1813216;79;21087;-60
2021/06/30 03:55:24;;;;;;;8.48;5.80;;;;;;;23.17;75.69;101206.77;1813210;79;21094;-59
2021/06/30 03:57:53;;;;;;;9.88;5.72;;;;;;;23.23;74.15;101206.23;1813109;79;21083;-59
2021/06/30 04:00:26;;;;;;;11.97;5.97;;;;;;;23.29;73.79;101203.51;1813186;79;21067;-61
2021/06/30 04:02:51;;;;;;;11.12;5.83;;;;;;;23.38;73.49;101201.38;1812765;79;21136;-60
2021/06/30 04:05:20;;;;;;;7.95;4.72;;;;;;;23.53;73.32;101207.77;1813212;79;21090;-60
2021/06/30 04:07:49;;;;;;;9.58;5.62;;;;;;;23.69;72.92;101208.98;1813268;79;21129;-60
2021/06/30 04:10:18;;;;;;;10.58;5.15;;;;;;;23.88;72.29;101211.42;1813069;79;21196;-61
2021/06/30 04:12:47;;;;;;;12.18;5.53;;;;;;;24.04;71.79;101213.63;1813320;79;21079;-60
2021/06/30 04:15:16;;;;;;;14.65;5.87;;;;;;;24.06;71.20;101210.30;1813522;79;21170;-60
2021/06/30 04:17:45;;;;;;;7.67;5.60;;;;;;;23.96;70.75;101217.47;1813315;79;21141;-60
2021/06/30 04:20:21;;;;;;;10.08;5.80;;;;;;;23.76;70.36;101220.06;1813299;79;21149;-60
2021/06/30 04:22:49;;;;;;;9.63;6.22;;;;;;;23.68;70.30;101214.48;1813213;79;21141;-60
2021/06/30 04:25:18;;;;;;;11.05;7.03;;;;;;;23.59;70.31;101215.28;1813288;79;21114;-59
2021/06/30 04:27:47;;;;;;;15.93;8.08;;;;;;;23.58;70.32;101216.28;1813313;79;21063;-60
2021/06/30 04:30:16;;;;;;;15.72;6.28;;;;;;;23.64;70.15;101223.81;1801105;80;21101;-60
2021/06/30 04:32:46;;;;;;;11.85;6.25;;;;;;;23.86;69.98;101220.13;1813273;79;21063;-61
2021/06/30 04:35:15;;;;;;;13.62;6.60;;;;;;;24.04;69.63;101214.97;1813238;79;21047;-60
2021/06/30 04:37:44;;;;;;;10.05;6.03;;;;;;;24.08;69.37;101219.08;1813288;79;21130;-59
2021/06/30 04:40:13;;;;;;;13.05;5.37;;;;;;;24.10;69.34;101219.80;1813265;79;21078;-60
2021/06/30 04:42:42;;;;;;;10.88;5.90;;;;;;;24.09;69.18;101218.95;1813310;79;21133;-60
2021/06/30 04:45:11;;;;;;;9.80;5.20;;;;;;;24.31;69.26;101221.55;1813302;79;21121;-60
2021/06/30 04:47:39;;;;;;;8.20;4.60;;;;;;;24.61;68.37;101222.86;1813293;79;21082;-60
2021/06/30 04:50:09;;;;;;;10.32;4.85;;;;;;;25.26;66.28;101216.92;1813304;79;21146;-60
2021/06/30 04:52:38;;;;;;;6.85;4.10;;;;;;;25.83;63.04;101216.92;1813276;79;21134;-60
2021/06/30 04:55:08;;;;;;;10.95;4.78;;;;;;;26.17;61.75;101214.53;1813398;79;21122;-60
2021/06/30 04:57:38;;;;;;;9.35;4.42;;;;;;;26.38;60.74;101216.11;1813408;79;21513;-60
2021/06/30 05:00:09;;;;;;;12.53;5.10;;;;;;;26.30;60.41;101225.45;1813367;79;21059;-60
2021/06/30 05:02:38;;;;;;;9.35;4.20;;;;;;;26.66;60.59;101221.50;1813211;79;21185;-60
2021/06/30 05:05:07;;;;;;;7.08;4.25;;;;;;;26.84;59.60;101225.05;1813282;79;21087;-60
2021/06/30 05:07:36;;;;;;;7.62;4.45;;;;;;;27.09;59.29;101226.61;1813381;79;21125;-59
2021/06/30 05:10:05;;;;;;;8.70;4.35;;;;;;;27.59;58.88;101221.92;1813306;79;21054;-61
2021/06/30 05:12:34;;;;;;;6.85;4.00;;;;;;;28.07;57.35;101217.83;1813277;79;21060;-60
2021/06/30 05:15:03;;;;;;;13.32;4.40;;;;;;;28.30;55.89;101221.28;1813171;79;21190;-60
2021/06/30 05:17:31;;;;;;;8.98;4.30;;;;;;;28.60;55.18;101227.14;1813275;79;21118;-60
2021/06/30 05:20:00;;;;;;;5.97;4.35;;;;;;;28.79;55.24;101224.14;1813219;79;21454;-60
2021/06/30 05:22:30;;;;;;;6.28;4.50;;;;;;;28.82;55.01;101229.20;1813311;79;21424;-60
2021/06/30 05:25:00;;;;;;;9.00;4.35;;;;;;;28.81;54.49;101226.66;1813379;79;21059;-60
2021/06/30 05:27:29;;;;;;;5.10;4.03;;;;;;;28.36;54.42;101228.73;1813212;79;21122;-61
2021/06/30 05:29:58;;;;;;;6.20;3.95;;;;;;;27.97;54.95;101237.39;1819771;78;21106;-60
2021/06/30 05:32:26;;;;;;;6.05;4.00;;;;;;;27.69;54.69;101234.84;1825534;79;21113;-61
2021/06/30 05:34:55;;;;;;;7.80;4.28;;;;;;;27.84;54.01;101228.84;1825539;79;21055;-60
2021/06/30 05:37:23;;;;;;;4.75;3.83;;;;;;;28.19;54.21;101233.26;1825322;79;21148;-60
2021/06/30 05:39:52;;;;;;;5.83;3.80;;;;;;;28.57;53.04;101228.82;1825451;79;21140;-60
2021/06/30 05:42:20;;;;;;;9.83;4.12;;;;;;;28.76;51.83;101235.81;1825299;79;21094;-60
2021/06/30 05:44:49;;;;;;;5.95;4.10;;;;;;;29.15;51.80;101234.67;1825430;79;21089;-60
2021/06/30 05:47:18;;;;;;;4.45;3.55;;;;;;;29.50;50.51;101223.11;1825311;79;21062;-59
2021/06/30 05:49:48;;;;;;;7.37;3.55;;;;;;;29.88;49.84;101230.17;1825327;79;21157;-60
2021/06/30 05:52:17;;;;;;;10.38;3.90;;;;;;;30.21;49.04;101231.38;1825489;79;21498;-60
2021/06/30 05:54:45;;;;;;;8.05;4.20;;;;;;;30.40;47.56;101222.83;1825217;78;21454;-60
2021/06/30 05:57:14;;;;;;;11.08;4.35;;;;;;;30.40;46.80;101217.39;1825305;79;21161;-59
2021/06/30 05:59:43;;;;;;;7.65;3.70;;;;;;;30.34;47.02;101222.19;1825303;79;21023;-59
2021/06/30 06:02:12;;;;;;;8.15;3.80;;;;;;;30.34;45.66;101226.27;1825289;78;21131;-60
2021/06/30 06:04:40;;;;;;;5.03;3.85;;;;;;;30.46;45.55;101227.22;1825417;79;21042;-60
2021/06/30 06:07:09;;;;;;;4.75;3.40;;;;;;;30.71;45.31;101228.75;1825417;79;21483;-60
2021/06/30 06:09:38;;;;;;;6.08;3.58;;;;;;;30.83;43.30;101222.89;1825313;79;21153;-61
2021/06/30 06:12:07;;;;;;;5.03;3.42;;;;;;;30.90;41.76;101222.50;1825314;79;21125;-61
2021/06/30 06:14:36;;;;;;;9.25;3.92;;;;;;;30.90;42.23;101225.22;1825425;78;21117;-61
2021/06/30 06:17:05;;;;;;;7.17;3.45;;;;;;;31.06;42.68;101233.27;1825304;78;21493;-61
2021/06/30 06:19:33;;;;;;;6.47;2.87;;;;;;;31.11;42.07;101221.31;1825389;79;21120;-61
2021/06/30 06:22:05;;;;;;;5.00;3.62;;;;;;;31.25;42.79;101220.19;1825388;79;21088;-60
2021/06/30 06:24:37;;;;;;;9.38;3.55;;;;;;;31.02;42.69;101224.30;1825309;79;21035;-60
2021/06/30 06:27:09;;;;;;;5.92;3.33;;;;;;;31.16;42.87;101232.48;1825560;79;21137;-60
2021/06/30 06:29:39;;;;;;;5.53;3.57;;;;;;;31.42;43.06;101236.67;1824435;78;21014;-61
2021/06/30 06:32:09;;;;;;;7.65;3.58;;;;;;;31.70;42.13;101225.19;1813156;79;21553;-60
2021/06/30 06:34:37;;;;;;;7.00;3.50;;;;;;;31.87;40.71;101229.91;1813221;79;21154;-61
2021/06/30 06:37:11;;;;;;;4.83;3.08;;;;;;;32.14;39.61;101235.23;1813271;79;21059;-61
2021/06/30 06:39:36;;;;;;;11.48;3.60;;;;;;;32.32;40.31;101236.20;1812711;79;21055;-61
2021/06/30 06:42:07;;;;;;;6.87;3.25;;;;;;;32.56;40.52;101233.64;1801067;80;21066;-61
2021/06/30 06:44:38;;;;;;;5.75;3.15;;;;;;;32.61;39.80;101227.13;1813135;79;21079;-61
2021/06/30 06:47:07;;;;;;;7.17;3.08;;;;;;;32.16;39.80;101237.78;1813451;79;21129;-61
2021/06/30 06:49:36;;;;;;;3.87;2.75;;;;;;;31.83;39.54;101240.34;1813238;79;21059;-60
2021/06/30 06:52:05;;;;;;;6.30;2.80;;;;;;;32.01;39.28;101244.58;1813247;79;21059;-60
2021/06/30 06:54:34;;;;;;;5.25;2.90;;;;;;;32.61;38.51;101239.39;1813223;79;21121;-62
2021/06/30 06:57:03;;;;;;;9.78;3.60;;;;;;;32.98;35.53;101234.72;1813159;79;21035;-62
2021/06/30 06:59:32;;;;;;;7.90;3.58;;;;;;;33.23;35.69;101238.41;1813243;79;21458;-60
2021/06/30 07:02:01;;;;;;;8.08;3.40;;;;;;;33.54;35.54;101237.17;1813200;79;21513;-61
2021/06/30 07:04:30;;;;;;;10.25;3.30;;;;;;;33.63;34.64;101242.27;1813202;79;21557;-61
2021/06/30 07:06:58;;;;;;;4.28;3.00;;;;;;;33.47;34.81;101237.95;1811140;79;21095;-59
2021/06/30 07:09:27;;;;;;;5.85;3.25;;;;;;;33.63;35.18;101231.88;1795111;80;21074;-61
2021/06/30 07:11:56;;;;;;;7.55;3.00;;;;;;;33.50;34.71;101238.09;1801040;80;22134;-60
2021/06/30 07:14:24;;;;;;;5.75;3.05;;;;;;;33.44;34.90;101241.10;1830935;78;21037;-59
2021/06/30 07:16:53;;;;;;;13.48;3.70;;;;;;;33.55;34.87;101238.84;1830775;78;21037;-60
2021/06/30 07:19:22;;;;;;;4.75;3.05;;;;;;;33.70;34.68;101245.09;1830815;78;21066;-59
2021/06/30 07:21:50;;;;;;;8.38;3.25;;;;;;;33.94;34.24;101246.98;1830739;78;21095;-60
2021/06/30 07:24:19;;;;;;;7.22;3.15;;;;;;;33.88;32.57;101232.78;1830713;78;21072;-60
2021/06/30 07:26:48;;;;;;;7.30;3.02;;;;;;;33.76;32.49;101239.34;1830801;78;21482;-60
2021/06/30 07:29:17;;;;;;;3.80;2.90;;;;;;;33.96;33.06;101237.55;1830894;78;21063;-60
2021/06/30 07:31:46;;;;;;;4.45;3.05;;;;;;;34.01;31.42;101234.20;1828877;78;21146;-60
2021/06/30 07:34:15;;;;;;;8.00;2.90;;;;;;;33.87;32.27;101240.67;1828172;78;21063;-60
2021/06/30 07:36:43;;;;;;;7.30;3.27;;;;;;;33.90;32.41;101232.05;1828051;78;21126;-60
2021/06/30 07:39:12;;;;;;;7.75;3.50;;;;;;;33.58;32.74;101234.36;1828134;78;21515;-60
2021/06/30 07:41:41;;;;;;;9.53;4.12;;;;;;;33.43;33.39;101229.84;1828147;78;21158;-60
2021/06/30 07:44:10;;;;;;;5.70;3.42;;;;;;;33.30;32.74;101235.22;1828198;78;21130;-61
2021/06/30 07:46:39;;;;;;;3.95;2.83;;;;;;;33.42;33.27;101235.00;1828118;78;21475;-60
2021/06/30 07:49:08;;;;;;;5.45;2.75;;;;;;;33.80;32.26;101241.45;1828120;78;21601;-60
2021/06/30 07:51:36;;;;;;;5.17;2.20;;;;;;;33.99;32.22;101241.27;1828289;78;21525;-60
2021/06/30 07:54:05;;;;;;;4.28;2.90;;;;;;;34.13;28.50;101235.31;1828270;78;21015;-58
2021/06/30 07:56:34;;;;;;;3.10;2.33;;;;;;;34.39;30.36;101239.23;1828171;78;21129;-58
2021/06/30 07:59:07;;;;;;;5.35;2.72;;;;;;;34.73;30.00;101229.23;1828281;78;21023;-59
2021/06/30 08:01:36;;;;;;;5.37;3.02;;;;;;;35.04;28.77;101217.68;1827528;78;21438;-60
2021/06/30 08:04:06;;;;;;;7.60;3.20;;;;;;;35.04;28.77;101217.68;1828185;78;21095;-58
2021/06/30 08:06:38;;;;;;;8.53;3.45;;;;;;;34.97;30.07;101227.27;1828165;78;21094;-59
2021/06/30 08:09:07;;;;;;;8.15;3.25;;;;;;;34.85;31.06;101218.00;1828133;78;21094;-59
2021/06/30 08:11:36;;;;;;;4.67;2.92;;;;;;;34.58;29.02;101219.31;1828131;78;21522;-58
2021/06/30 08:14:05;;;;;;;7.62;2.50;;;;;;;34.55;29.49;101229.81;1828125;78;21064;-59
2021/06/30 08:16:33;;;;;;;4.47;3.00;;;;;;;34.55;29.49;101229.81;1828098;78;21036;-58
2021/06/30 08:19:02;;;;;;;4.15;2.62;;;;;;;34.17;31.05;101266.67;1828124;78;21232;-58
2021/06/30 08:21:31;;;;;;;6.20;2.92;;;;;;;33.93;31.13;101226.19;1828135;78;21550;-59
2021/06/30 08:23:59;;;;;;;5.90;3.27;;;;;;;34.18;30.51;101224.66;1828148;78;21110;-61
2021/06/30 08:26:28;;;;;;;7.22;3.33;;;;;;;33.93;31.42;101228.39;1828283;78;21512;-61
2021/06/30 08:28:58;;;;;;;5.22;3.40;;;;;;;33.56;31.90;101224.17;1828408;78;21043;-60
2021/06/30 08:31:27;;;;;;;5.80;3.05;;;;;;;33.42;32.54;101220.48;1828083;77;21126;-60
2021/06/30 08:33:56;;;;;;;6.12;3.77;;;;;;;33.50;32.06;101218.16;1828125;78;21510;-60
2021/06/30 08:36:24;;;;;;;4.75;3.35;;;;;;;33.78;31.52;101209.41;1828177;78;21102;-61
2021/06/30 08:38:54;;;;;;;5.30;2.90;;;;;;;33.93;31.51;101204.34;1828138;78;21056;-60
2021/06/30 08:41:23;;;;;;;6.65;3.02;;;;;;;34.22;31.56;101212.26;1828086;78;21118;-61
2021/06/30 08:43:52;;;;;;;6.50;3.37;;;;;;;34.49;31.95;101220.55;1828022;78;21186;-60
2021/06/30 08:46:22;;;;;;;6.58;3.00;;;;;;;34.66;31.30;101218.77;1828045;78;21122;-61
2021/06/30 08:48:51;;;;;;;6.78;2.40;;;;;;;33.93;31.91;101284.39;1828106;78;21036;-60
2021/06/30 08:51:26;;;;;;;4.30;3.20;;;;;;;33.44;31.72;101204.25;1828002;78;21118;-60
2021/06/30 08:53:56;;;;;;;4.10;2.90;;;;;;;33.38;32.59;101196.84;1827891;78;21012;-60
2021/06/30 08:56:34;;;;;;;8.13;3.42;;;;;;;33.91;32.46;101211.90;1827992;78;21035;-61
2021/06/30 08:58:55;;;;;;;8.50;2.47;;;;;;;34.39;31.07;101203.69;1822452;78;21040;-60
2021/06/30 09:01:25;;;;;;;3.52;2.70;;;;;;;34.39;31.07;101203.69;1828077;78;21510;-60
2021/06/30 09:03:56;;;;;;;3.02;2.65;;;;;;;33.94;31.48;101221.03;1828082;78;21032;-60
2021/06/30 09:06:26;;;;;;;3.15;2.22;;;;;;;33.30;31.47;101210.66;1828001;78;21110;-60
2021/06/30 09:08:57;;;;;;;3.47;1.98;;;;;;;32.55;31.27;101220.20;1828137;78;21036;-60
2021/06/30 09:11:30;;;;;;;4.92;2.72;;;;;;;32.62;30.52;101219.78;1828207;78;21036;-60
2021/06/30 09:14:16;;;;;;;4.80;3.25;;;;;;;33.24;30.92;101214.19;1828110;78;21036;-60
2021/06/30 09:17:06;;;;;;;4.95;2.85;;;;;;;33.57;32.47;101202.13;1828074;78;21076;-60
2021/06/30 09:19:54;;;;;;;2.75;2.27;;;;;;;33.43;33.01;101205.81;1828036;78;21098;-60
2021/06/30 09:22:26;;;;;;;2.92;2.10;;;;;;;33.23;31.78;101207.03;1828081;78;21004;-60
2021/06/30 09:24:56;;;;;;;3.40;2.37;;;;;;;32.91;31.81;101214.72;1824818;78;21486;-61
2021/06/30 09:27:40;;;;;;;8.85;3.27;;;;;;;32.57;32.95;101205.85;1828043;78;21012;-60
2021/06/30 09:30:12;;;;;;;2.67;2.45;;;;;;;32.88;33.74;101203.66;1828198;78;21032;-60
2021/06/30 09:32:59;;;;;;;5.27;2.97;;;;;;;33.24;32.13;101209.56;1832329;77;21067;-60
2021/06/30 09:35:36;;;;;;;5.65;2.50;;;;;;;33.61;31.80;101208.03;1837104;78;21036;-61
2021/06/30 09:38:33;;;;;;;3.37;2.35;;;;;;;33.95;31.79;101202.24;1837136;78;21028;-60
2021/06/30 09:41:02;;;;;;;4.87;3.05;;;;;;;34.04;30.38;101198.29;1837270;78;21028;-60
2021/06/30 09:43:33;;;;;;;3.50;2.87;;;;;;;33.69;32.62;101196.14;1837140;78;21522;-60
2021/06/30 09:46:05;;;;;;;4.97;3.37;;;;;;;33.77;33.52;101200.91;1837079;78;21067;-60
2021/06/30 09:48:35;;;;;;;;;;;;;;;34.11;33.80;101203.79;1837690;77;21059;-60
2021/06/30 09:51:06;;;;;;;4.10;3.00;;;;;;;33.88;34.15;101200.00;1837168;78;20151;-61
2021/06/30 09:53:43;;;;;;;4.62;2.98;;;;;;;33.78;33.95;101211.30;1837264;78;21004;-60
2021/06/30 09:56:36;;;;;;;5.37;3.45;;;;;;;33.68;34.79;101202.13;1837141;78;21078;-60
2021/06/30 09:58:50;;;;;;;4.30;2.72;;;;;;;33.77;34.60;101202.28;1825833;78;21040;-61
2021/06/30 10:01:20;;;;;;;3.92;2.52;;;;;;;33.50;33.43;101199.87;1837169;78;20996;-60
2021/06/30 10:03:49;;;;;;;6.65;2.98;;;;;;;33.27;33.83;101198.27;1837206;78;21035;-61
2021/06/30 10:06:32;;;;;;;4.67;2.62;;;;;;;33.17;33.13;101185.48;1837151;78;21097;-60
2021/06/30 10:09:04;;;;;;;5.72;2.58;;;;;;;33.07;33.66;101189.89;1837138;78;21052;-61
2021/06/30 10:11:35;;;;;;;4.58;2.85;;;;;;;33.01;33.70;101193.39;1837350;78;21541;-61
2021/06/30 10:14:04;;;;;;;4.65;2.92;;;;;;;32.95;34.08;101171.01;1837506;78;21031;-60
2021/06/30 10:16:33;;;;;;;4.75;2.92;;;;;;;32.81;34.60;101186.92;1837292;78;21059;-60
2021/06/30 10:19:02;;;;;;;3.83;1.87;;;;;;;32.84;33.94;101179.73;1837174;78;20991;-60
2021/06/30 10:21:32;;;;;;;4.92;2.98;;;;;;;32.80;33.21;101183.36;1837220;78;21145;-60
2021/06/30 10:24:01;;;;;;;4.85;2.50;;;;;;;32.65;33.38;101171.17;1837118;78;21032;-60
2021/06/30 10:26:30;;;;;;;3.72;2.67;;;;;;;32.73;33.83;101186.55;1837366;78;21490;-60
2021/06/30 10:29:01;;;;;;;6.53;2.70;;;;;;;32.74;33.67;101195.56;1837148;78;21055;-61
2021/06/30 10:31:35;;;;;;;4.05;2.67;;;;;;;32.62;33.25;101191.16;1837147;78;21105;-60
2021/06/30 10:34:07;;;;;;;5.70;2.70;;;;;;;32.45;34.16;101181.00;1837055;78;21384;-61
2021/06/30 10:36:47;;;;;;;4.28;2.60;;;;;;;32.47;34.17;101181.12;1837196;78;21117;-60
2021/06/30 10:39:21;;;;;;;5.85;2.70;;;;;;;32.57;34.13;101169.05;1837138;78;21133;-60
2021/06/30 10:41:55;;;;;;;3.65;2.83;;;;;;;32.64;34.71;101168.11;1832833;77;21016;-60
2021/06/30 10:44:26;;;;;;;8.55;3.37;;;;;;;32.80;34.91;101178.44;1836985;78;21450;-60
2021/06/30 10:46:56;;;;;;;3.85;3.08;;;;;;;32.50;35.17;101174.45;1837238;78;21032;-60
2021/06/30 10:49:29;;;;;;;4.83;2.87;;;;;;;31.97;35.19;101185.55;1837196;78;21439;-61
2021/06/30 10:52:01;;;;;;;4.55;3.05;;;;;;;31.73;35.84;101181.27;1837116;78;21514;-60
2021/06/30 10:54:41;;;;;;;7.53;3.62;;;;;;;31.55;36.35;101185.20;1837249;78;21039;-60
2021/06/30 10:57:29;;;;;;;6.10;2.92;;;;;;;31.32;36.65;101180.34;1837100;78;21096;-60
2021/06/30 11:00:05;;;;;;;4.70;3.70;;;;;;;31.02;37.52;101178.90;1837114;78;21078;-60
2021/06/30 11:02:35;;;;;;;5.95;2.98;;;;;;;31.15;37.21;101170.98;1837136;78;21161;-60
2021/06/30 11:05:18;;;;;;;7.83;2.92;;;;;;;31.28;37.17;101173.55;1837047;78;21137;-61
2021/06/30 11:07:47;;;;;;;3.33;3.02;;;;;;;31.32;37.32;101179.81;1837119;78;21031;-60
2021/06/30 11:10:25;;;;;;;4.95;3.20;;;;;;;31.12;37.33;101171.34;1837136;78;21499;-60
2021/06/30 11:12:56;;;;;;;5.60;3.20;;;;;;;31.09;38.27;101174.42;1837115;78;21541;-60
2021/06/30 11:15:39;;;;;;;4.53;3.20;;;;;;;31.15;38.92;101170.11;1837107;78;21090;-60
2021/06/30 11:18:18;;;;;;;4.95;3.00;;;;;;;31.24;38.81;101172.25;1837223;78;21126;-60
2021/06/30 11:21:00;;;;;;;5.12;2.90;;;;;;;31.35;38.06;101159.54;1837107;78;21031;-60
2021/06/30 11:23:27;;;;;;;4.60;3.00;;;;;;;31.30;38.27;101161.48;1836448;78;21072;-60
2021/06/30 11:25:58;;;;;;;5.15;3.35;;;;;;;31.26;37.88;101162.86;1837175;78;21097;-60
2021/06/30 11:28:38;;;;;;;4.87;2.87;;;;;;;31.21;38.73;101167.16;1832542;78;21474;-60
2021/06/30 11:31:30;;;;;;;6.15;3.02;;;;;;;31.20;38.69;101163.61;1837211;78;21035;-60
2021/06/30 11:34:04;;;;;;;4.72;2.98;;;;;;;31.09;39.24;101155.37;1837033;78;21076;-60